createdAt,value
2017-10-28T08:40:57.317Z,98612.06
2017-10-28T08:43:24.893Z,98595.98
2017-10-28T08:45:52.432Z,98592.73
2017-10-28T08:48:20.419Z,98574.86
2017-10-28T08:50:48.678Z,98571.48
2017-10-28T08:53:16.668Z,98567.74
2017-10-28T08:55:44.552Z,98560.14
2017-10-28T08:58:13.024Z,98562.14
2017-10-28T09:00:40.612Z,98550.05
2017-10-28T09:03:08.717Z,98537.66
2017-10-28T09:05:36.181Z,98531.61
2017-10-28T09:08:03.682Z,98542.29
2017-10-28T09:10:31.198Z,98546.30
2017-10-28T09:12:58.673Z,98538.05
2017-10-28T09:15:26.326Z,98537.74
2017-10-28T09:17:53.800Z,98548.21
2017-10-28T09:20:21.312Z,98548.06
2017-10-28T09:22:48.774Z,98550.39
2017-10-28T09:25:16.270Z,98537.80
2017-10-28T09:27:43.762Z,98533.27
2017-10-28T09:30:11.264Z,98546.30
2017-10-28T09:32:38.771Z,98551.75
2017-10-28T09:35:06.836Z,98563.31
2017-10-28T09:37:34.477Z,98547.87
2017-10-28T09:40:02.077Z,98542.97
2017-10-28T09:42:29.648Z,98533.21
2017-10-28T09:44:57.577Z,98526.76
2017-10-28T09:47:25.072Z,98511.53
2017-10-28T09:49:52.658Z,98525.66
2017-10-28T09:52:20.132Z,98520.38
2017-10-28T09:54:47.718Z,98508.69
2017-10-28T09:57:15.299Z,98506.43
2017-10-28T09:59:42.764Z,98524.23
2017-10-28T10:02:11.383Z,98516.25
2017-10-28T10:04:39.333Z,98514.41
2017-10-28T10:07:06.811Z,98508.50
2017-10-28T10:09:35.150Z,98503.52
2017-10-28T10:12:03.670Z,98510.22
2017-10-28T10:14:31.202Z,98528.52
2017-10-28T10:17:01.542Z,98526.72
2017-10-28T10:19:32.225Z,98540.34
2017-10-28T10:21:59.684Z,98529.33
2017-10-28T10:24:27.168Z,98525.84
2017-10-28T10:26:54.856Z,98524.51
2017-10-28T10:29:22.340Z,98528.95
2017-10-28T10:31:49.817Z,98518.06
2017-10-28T10:34:17.437Z,98512.41
2017-10-28T10:36:45.572Z,98500.70
2017-10-28T10:39:13.269Z,98495.89
2017-10-28T10:41:40.771Z,98487.61
2017-10-28T10:44:08.423Z,98466.45
2017-10-28T10:46:35.881Z,98477.02
2017-10-28T10:49:03.414Z,98460.42
2017-10-28T10:51:31.058Z,98462.48
2017-10-28T10:53:58.815Z,98451.35
2017-10-28T10:56:26.274Z,98458.73
2017-10-28T10:58:53.793Z,98456.72
2017-10-28T11:01:21.490Z,98456.09
2017-10-28T11:03:48.989Z,98456.36
2017-10-28T11:06:16.616Z,98458.41
2017-10-28T11:08:44.688Z,98456.24
2017-10-28T11:11:12.185Z,98455.26
2017-10-28T11:13:39.730Z,98460.77
2017-10-28T11:16:07.216Z,98456.00
2017-10-28T11:18:34.725Z,98454.95
2017-10-28T11:21:02.203Z,98454.14
2017-10-28T11:23:29.680Z,98458.06
2017-10-28T11:25:58.212Z,98444.31
2017-10-28T11:28:27.174Z,98445.12
2017-10-28T11:30:54.738Z,98449.77
2017-10-28T11:33:22.265Z,98433.31
2017-10-28T11:35:49.756Z,98414.98
2017-10-28T11:38:18.166Z,98405.31
2017-10-28T11:40:45.720Z,98398.49
2017-10-28T11:43:13.594Z,98382.10
2017-10-28T11:45:41.110Z,98391.80
2017-10-28T11:48:08.637Z,98374.36
2017-10-28T11:50:36.388Z,98379.39
2017-10-28T11:53:03.894Z,98381.41
2017-10-28T11:55:31.441Z,98381.59
2017-10-28T11:57:58.982Z,98367.50
2017-10-28T12:00:26.512Z,98353.48
2017-10-28T12:02:54.041Z,98353.81
2017-10-28T12:05:21.635Z,98353.79
2017-10-28T12:07:49.121Z,98352.80
2017-10-28T12:10:16.847Z,98353.81
2017-10-28T12:12:44.447Z,98341.30
2017-10-28T12:15:12.060Z,98348.41
2017-10-28T12:17:39.692Z,98342.11
2017-10-28T12:20:07.460Z,98345.58
2017-10-28T12:22:35.095Z,98355.38
2017-10-28T12:25:04.119Z,98357.83
2017-10-28T12:27:32.442Z,98358.70
2017-10-28T12:30:10.961Z,98365.79
2017-10-28T12:32:38.704Z,98362.08
2017-10-28T12:35:06.284Z,98348.91
2017-10-28T12:37:35.299Z,98339.73
2017-10-28T12:40:02.929Z,98338.62
2017-10-28T12:42:32.381Z,98347.16
2017-10-28T12:45:01.704Z,98345.59
2017-10-28T12:47:33.239Z,98346.05
2017-10-28T12:50:01.924Z,98319.47
2017-10-28T12:52:34.360Z,98308.43
2017-10-28T12:55:02.010Z,98312.39
2017-10-28T12:57:31.646Z,98314.03
2017-10-28T12:59:59.204Z,98321.86
2017-10-28T13:02:26.868Z,98325.59
2017-10-28T13:05:01.649Z,98321.86
2017-10-28T13:07:29.239Z,98324.19
2017-10-28T13:09:58.022Z,98331.83
2017-10-28T13:12:25.550Z,98333.84
2017-10-28T13:14:53.186Z,98329.84
2017-10-28T13:17:20.810Z,98317.15
2017-10-28T13:19:48.400Z,98294.64
2017-10-28T13:22:16.342Z,98289.62
2017-10-28T13:24:46.188Z,98285.53
2017-10-28T13:27:13.810Z,98276.06
2017-10-28T13:29:41.850Z,98266.52
2017-10-28T13:32:09.569Z,98259.14
2017-10-28T13:34:38.024Z,98269.50
2017-10-28T13:37:14.540Z,98279.84
2017-10-28T13:39:44.333Z,98279.00
2017-10-28T13:42:19.396Z,98263.18
2017-10-28T13:47:25.708Z,98257.98
